Time;durP1;ratioP1;P1;durP2;ratioP2;P2;SDS_P1;SDS_P2;PMS_P1;PMS_P2;Temp;Humidity;BMP_temperature;BMP_pressure;BME280_temperature;BME280_humidity;BME280_pressure;Samples;Min_cycle;Max_cycle;Signal;HPM_P1;HPM_P2
2021/02/28 00:00:31;;;;;;;17.7;7.849999;;;;;;;-0.77;64.35156;96810.27;;;;
2021/02/28 00:01:34;;;;;;;17.7;7.849999;;;;;;;-0.77;64.35156;96810.27;;;;
2021/02/28 00:02:34;;;;;;;17.7;7.849999;;;;;;;-0.77;64.35156;96810.27;;;;
2021/02/28 00:03:35;;;;;;;17.7;7.849999;;;;;;;-0.77;64.35156;96810.27;;;;
2021/02/28 00:04:36;;;;;;;17.7;7.849999;;;;;;;-0.77;64.35156;96810.27;;;;
2021/02/28 00:05:36;;;;;;;17.7;7.849999;;;;;;;-0.77;64.35156;96810.27;;;;
2021/02/28 00:06:39;;;;;;;17.7;7.849999;;;;;;;-0.77;64.35156;96810.27;;;;
2021/02/28 00:07:39;;;;;;;17.7;7.849999;;;;;;;-0.77;64.35156;96810.27;;;;
2021/02/28 00:08:40;;;;;;;17.7;7.849999;;;;;;;-0.77;64.35156;96810.27;;;;
2021/02/28 00:09:41;;;;;;;18.2;8.550001;;;;;;;-0.63;64.59277;96803.34;;;;
2021/02/28 00:10:42;;;;;;;18.2;8.550001;;;;;;;-0.63;64.59277;96803.34;;;;
2021/02/28 00:11:43;;;;;;;18.2;8.550001;;;;;;;-0.63;64.59277;96803.34;;;;
2021/02/28 00:12:43;;;;;;;18.2;8.550001;;;;;;;-0.63;64.59277;96803.34;;;;
2021/02/28 00:13:44;;;;;;;18.2;8.550001;;;;;;;-0.63;64.59277;96803.34;;;;
2021/02/28 00:14:45;;;;;;;18.2;8.550001;;;;;;;-0.63;64.59277;96803.34;;;;
2021/02/28 00:15:45;;;;;;;18.2;8.550001;;;;;;;-0.63;64.59277;96803.34;;;;
2021/02/28 00:16:46;;;;;;;18.2;8.550001;;;;;;;-0.63;64.59277;96803.34;;;;
2021/02/28 00:17:46;;;;;;;18.2;8.550001;;;;;;;-0.63;64.59277;96803.34;;;;
2021/02/28 00:18:47;;;;;;;18.2;8.550001;;;;;;;-0.63;64.59277;96803.34;;;;
2021/02/28 00:19:48;;;;;;;14.95;8.400001;;;;;;;-0.62;64.55273;96798.8;;;;
2021/02/28 00:20:48;;;;;;;14.95;8.400001;;;;;;;-0.62;64.55273;96798.8;;;;
2021/02/28 00:21:49;;;;;;;14.95;8.400001;;;;;;;-0.62;64.55273;96798.8;;;;
2021/02/28 00:22:49;;;;;;;14.95;8.400001;;;;;;;-0.62;64.55273;96798.8;;;;
2021/02/28 00:23:50;;;;;;;14.95;8.400001;;;;;;;-0.62;64.55273;96798.8;;;;
2021/02/28 00:24:51;;;;;;;14.95;8.400001;;;;;;;-0.62;64.55273;96798.8;;;;
2021/02/28 00:25:51;;;;;;;14.95;8.400001;;;;;;;-0.62;64.55273;96798.8;;;;
2021/02/28 00:26:52;;;;;;;14.95;8.400001;;;;;;;-0.62;64.55273;96798.8;;;;
2021/02/28 00:27:52;;;;;;;14.95;8.400001;;;;;;;-0.62;64.55273;96798.8;;;;
2021/02/28 00:28:53;;;;;;;14.95;8.400001;;;;;;;-0.62;64.55273;96798.8;;;;
2021/02/28 00:29:54;;;;;;;14.95;8.400001;;;;;;;-0.62;64.55273;96798.8;;;;
2021/02/28 00:30:54;;;;;;;15.9;8.499999;;;;;;;-0.63;64.64648;96790.89;;;;
2021/02/28 00:31:55;;;;;;;15.9;8.499999;;;;;;;-0.63;64.64648;96790.89;;;;
2021/02/28 00:32:56;;;;;;;15.9;8.499999;;;;;;;-0.63;64.64648;96790.89;;;;
2021/02/28 00:33:57;;;;;;;15.9;8.499999;;;;;;;-0.63;64.64648;96790.89;;;;
2021/02/28 00:34:57;;;;;;;15.9;8.499999;;;;;;;-0.63;64.64648;96790.89;;;;
2021/02/28 00:35:58;;;;;;;15.9;8.499999;;;;;;;-0.63;64.64648;96790.89;;;;
2021/02/28 00:36:58;;;;;;;15.9;8.499999;;;;;;;-0.63;64.64648;96790.89;;;;
2021/02/28 00:37:59;;;;;;;15.9;8.499999;;;;;;;-0.63;64.64648;96790.89;;;;
2021/02/28 00:39:00;;;;;;;15.9;8.499999;;;;;;;-0.63;64.64648;96790.89;;;;
2021/02/28 00:40:00;;;;;;;15.9;8.499999;;;;;;;-0.63;64.64648;96790.89;;;;
2021/02/28 00:41:01;;;;;;;15.9;8.499999;;;;;;;-0.63;64.64648;96790.89;;;;
2021/02/28 00:42:02;;;;;;;15.6;8.1;;;;;;;-0.59;65.20605;96792.31;;;;
2021/02/28 00:43:03;;;;;;;15.6;8.1;;;;;;;-0.59;65.20605;96792.31;;;;
2021/02/28 00:44:03;;;;;;;15.6;8.1;;;;;;;-0.59;65.20605;96792.31;;;;
2021/02/28 00:45:05;;;;;;;15.6;8.1;;;;;;;-0.59;65.20605;96792.31;;;;
2021/02/28 00:46:08;;;;;;;15.6;8.1;;;;;;;-0.59;65.20605;96792.31;;;;
2021/02/28 00:47:08;;;;;;;15.6;8.1;;;;;;;-0.59;65.20605;96792.31;;;;
2021/02/28 00:48:08;;;;;;;15.6;8.1;;;;;;;-0.59;65.20605;96792.31;;;;
2021/02/28 00:49:09;;;;;;;15.6;8.1;;;;;;;-0.59;65.20605;96792.31;;;;
2021/02/28 00:50:10;;;;;;;15.6;8.1;;;;;;;-0.59;65.20605;96792.31;;;;
2021/02/28 00:51:13;;;;;;;15.6;8.1;;;;;;;-0.59;65.20605;96792.31;;;;
2021/02/28 00:52:14;;;;;;;15.65;8;;;;;;;-0.58;65.2373;96792.74;;;;
2021/02/28 00:53:14;;;;;;;15.65;8;;;;;;;-0.58;65.2373;96792.74;;;;
2021/02/28 00:54:15;;;;;;;15.65;8;;;;;;;-0.58;65.2373;96792.74;;;;
2021/02/28 00:55:15;;;;;;;15.65;8;;;;;;;-0.58;65.2373;96792.74;;;;
2021/02/28 00:56:16;;;;;;;15.65;8;;;;;;;-0.58;65.2373;96792.74;;;;
2021/02/28 00:57:16;;;;;;;15.65;8;;;;;;;-0.58;65.2373;96792.74;;;;
2021/02/28 00:58:17;;;;;;;15.65;8;;;;;;;-0.58;65.2373;96792.74;;;;
2021/02/28 00:59:18;;;;;;;15.65;8;;;;;;;-0.58;65.2373;96792.74;;;;
2021/02/28 01:00:18;;;;;;;15.65;8;;;;;;;-0.58;65.2373;96792.74;;;;
2021/02/28 01:01:19;;;;;;;15.65;8;;;;;;;-0.58;65.2373;96792.74;;;;
2021/02/28 01:02:20;;;;;;;15.65;8;;;;;;;-0.58;65.2373;96792.74;;;;
2021/02/28 01:03:20;;;;;;;13.85;7.800001;;;;;;;-0.59;65.62305;96795.87;;;;
2021/02/28 01:04:21;;;;;;;13.85;7.800001;;;;;;;-0.59;65.62305;96795.87;;;;
2021/02/28 01:05:21;;;;;;;13.85;7.800001;;;;;;;-0.59;65.62305;96795.87;;;;
2021/02/28 01:06:22;;;;;;;13.85;7.800001;;;;;;;-0.59;65.62305;96795.87;;;;
2021/02/28 01:07:22;;;;;;;13.85;7.800001;;;;;;;-0.59;65.62305;96795.87;;;;
2021/02/28 01:08:23;;;;;;;13.85;7.800001;;;;;;;-0.59;65.62305;96795.87;;;;
2021/02/28 01:09:23;;;;;;;13.85;7.800001;;;;;;;-0.59;65.62305;96795.87;;;;
2021/02/28 01:10:24;;;;;;;13.85;7.800001;;;;;;;-0.59;65.62305;96795.87;;;;
2021/02/28 01:11:25;;;;;;;13.85;7.800001;;;;;;;-0.59;65.62305;96795.87;;;;
2021/02/28 01:12:26;;;;;;;13.85;7.800001;;;;;;;-0.59;65.62305;96795.87;;;;
2021/02/28 01:13:26;;;;;;;15.45;7.8;;;;;;;-0.55;66.31836;96780.96;;;;
2021/02/28 01:14:27;;;;;;;15.45;7.8;;;;;;;-0.55;66.31836;96780.96;;;;
2021/02/28 01:15:27;;;;;;;15.45;7.8;;;;;;;-0.55;66.31836;96780.96;;;;
2021/02/28 01:16:28;;;;;;;15.45;7.8;;;;;;;-0.55;66.31836;96780.96;;;;
2021/02/28 01:17:28;;;;;;;15.45;7.8;;;;;;;-0.55;66.31836;96780.96;;;;
2021/02/28 01:18:29;;;;;;;15.45;7.8;;;;;;;-0.55;66.31836;96780.96;;;;
2021/02/28 01:19:29;;;;;;;15.45;7.8;;;;;;;-0.55;66.31836;96780.96;;;;
2021/02/28 01:20:30;;;;;;;15.45;7.8;;;;;;;-0.55;66.31836;96780.96;;;;
2021/02/28 01:21:32;;;;;;;15.45;7.8;;;;;;;-0.55;66.31836;96780.96;;;;
2021/02/28 01:22:32;;;;;;;15.45;7.8;;;;;;;-0.55;66.31836;96780.96;;;;
2021/02/28 01:23:34;;;;;;;15.45;7.8;;;;;;;-0.55;66.31836;96780.96;;;;
2021/02/28 01:24:34;;;;;;;18.15;8.85;;;;;;;-0.51;66.44043;96783.28;;;;
2021/02/28 01:25:35;;;;;;;18.15;8.85;;;;;;;-0.51;66.44043;96783.28;;;;
2021/02/28 01:26:35;;;;;;;18.15;8.85;;;;;;;-0.51;66.44043;96783.28;;;;
2021/02/28 01:27:36;;;;;;;18.15;8.85;;;;;;;-0.51;66.44043;96783.28;;;;
2021/02/28 01:28:36;;;;;;;18.15;8.85;;;;;;;-0.51;66.44043;96783.28;;;;
2021/02/28 01:29:37;;;;;;;18.15;8.85;;;;;;;-0.51;66.44043;96783.28;;;;
2021/02/28 01:30:37;;;;;;;18.15;8.85;;;;;;;-0.51;66.44043;96783.28;;;;
2021/02/28 01:31:38;;;;;;;18.15;8.85;;;;;;;-0.51;66.44043;96783.28;;;;
2021/02/28 01:32:38;;;;;;;18.15;8.85;;;;;;;-0.51;66.44043;96783.28;;;;
2021/02/28 01:33:39;;;;;;;18.15;8.85;;;;;;;-0.51;66.44043;96783.28;;;;
2021/02/28 01:34:39;;;;;;;17.8;7.950001;;;;;;;-0.46;66.78223;96763.35;;;;
2021/02/28 01:35:40;;;;;;;17.8;7.950001;;;;;;;-0.46;66.78223;96763.35;;;;
2021/02/28 01:36:40;;;;;;;17.8;7.950001;;;;;;;-0.46;66.78223;96763.35;;;;
2021/02/28 01:37:41;;;;;;;17.8;7.950001;;;;;;;-0.46;66.78223;96763.35;;;;
2021/02/28 01:38:41;;;;;;;17.8;7.950001;;;;;;;-0.46;66.78223;96763.35;;;;
2021/02/28 01:39:42;;;;;;;17.8;7.950001;;;;;;;-0.46;66.78223;96763.35;;;;
2021/02/28 01:40:42;;;;;;;17.8;7.950001;;;;;;;-0.46;66.78223;96763.35;;;;
2021/02/28 01:41:43;;;;;;;17.8;7.950001;;;;;;;-0.46;66.78223;96763.35;;;;
2021/02/28 01:42:45;;;;;;;17.8;7.950001;;;;;;;-0.46;66.78223;96763.35;;;;
2021/02/28 01:43:45;;;;;;;17.8;7.950001;;;;;;;-0.46;66.78223;96763.35;;;;
2021/02/28 01:44:48;;;;;;;17.8;7.950001;;;;;;;-0.46;66.78223;96763.35;;;;
2021/02/28 01:45:49;;;;;;;15.45;8.299999;;;;;;;-0.46;66.99121;96761.6;;;;
2021/02/28 01:46:49;;;;;;;15.45;8.299999;;;;;;;-0.46;66.99121;96761.6;;;;
2021/02/28 01:47:50;;;;;;;15.45;8.299999;;;;;;;-0.46;66.99121;96761.6;;;;
2021/02/28 01:48:50;;;;;;;15.45;8.299999;;;;;;;-0.46;66.99121;96761.6;;;;
2021/02/28 01:49:51;;;;;;;15.45;8.299999;;;;;;;-0.46;66.99121;96761.6;;;;
2021/02/28 01:50:51;;;;;;;15.45;8.299999;;;;;;;-0.46;66.99121;96761.6;;;;
2021/02/28 01:51:52;;;;;;;15.45;8.299999;;;;;;;-0.46;66.99121;96761.6;;;;
2021/02/28 01:52:52;;;;;;;15.45;8.299999;;;;;;;-0.46;66.99121;96761.6;;;;
2021/02/28 01:53:53;;;;;;;15.45;8.299999;;;;;;;-0.46;66.99121;96761.6;;;;
2021/02/28 01:54:54;;;;;;;15.45;8.299999;;;;;;;-0.46;66.99121;96761.6;;;;
2021/02/28 01:55:55;;;;;;;16.4;8.550001;;;;;;;-0.43;66.76563;96749.81;;;;
2021/02/28 01:56:56;;;;;;;16.4;8.550001;;;;;;;-0.43;66.76563;96749.81;;;;
2021/02/28 01:57:57;;;;;;;16.4;8.550001;;;;;;;-0.43;66.76563;96749.81;;;;
2021/02/28 01:59:00;;;;;;;16.4;8.550001;;;;;;;-0.43;66.76563;96749.81;;;;
2021/02/28 02:00:00;;;;;;;16.4;8.550001;;;;;;;-0.43;66.76563;96749.81;;;;
2021/02/28 02:01:03;;;;;;;16.4;8.550001;;;;;;;-0.43;66.76563;96749.81;;;;
2021/02/28 02:02:05;;;;;;;16.4;8.550001;;;;;;;-0.43;66.76563;96749.81;;;;
2021/02/28 02:03:07;;;;;;;16.4;8.550001;;;;;;;-0.43;66.76563;96749.81;;;;
2021/02/28 02:04:07;;;;;;;16.4;8.550001;;;;;;;-0.43;66.76563;96749.81;;;;
2021/02/28 02:05:08;;;;;;;16.4;8.550001;;;;;;;-0.43;66.76563;96749.81;;;;
2021/02/28 02:06:11;;;;;;;16.4;8.550001;;;;;;;-0.43;66.76563;96749.81;;;;
2021/02/28 02:07:11;;;;;;;15.3;8.9;;;;;;;-0.5;66.69141;96750.47;;;;
2021/02/28 02:08:12;;;;;;;15.3;8.9;;;;;;;-0.5;66.69141;96750.47;;;;
2021/02/28 02:09:12;;;;;;;15.3;8.9;;;;;;;-0.5;66.69141;96750.47;;;;
2021/02/28 02:10:13;;;;;;;15.3;8.9;;;;;;;-0.5;66.69141;96750.47;;;;
2021/02/28 02:11:14;;;;;;;15.3;8.9;;;;;;;-0.5;66.69141;96750.47;;;;
2021/02/28 02:12:15;;;;;;;15.3;8.9;;;;;;;-0.5;66.69141;96750.47;;;;
2021/02/28 02:13:15;;;;;;;15.3;8.9;;;;;;;-0.5;66.69141;96750.47;;;;
2021/02/28 02:14:16;;;;;;;15.3;8.9;;;;;;;-0.5;66.69141;96750.47;;;;
2021/02/28 02:15:16;;;;;;;15.3;8.9;;;;;;;-0.5;66.69141;96750.47;;;;
2021/02/28 02:16:17;;;;;;;15.3;8.9;;;;;;;-0.5;66.69141;96750.47;;;;
2021/02/28 02:17:18;;;;;;;14.85;8.65;;;;;;;-0.6;66.92773;96744.3;;;;
2021/02/28 02:18:19;;;;;;;14.85;8.65;;;;;;;-0.6;66.92773;96744.3;;;;
2021/02/28 02:19:21;;;;;;;14.85;8.65;;;;;;;-0.6;66.92773;96744.3;;;;
2021/02/28 02:20:22;;;;;;;14.85;8.65;;;;;;;-0.6;66.92773;96744.3;;;;
2021/02/28 02:21:23;;;;;;;14.85;8.65;;;;;;;-0.6;66.92773;96744.3;;;;
2021/02/28 02:22:26;;;;;;;14.85;8.65;;;;;;;-0.6;66.92773;96744.3;;;;
2021/02/28 02:23:26;;;;;;;14.85;8.65;;;;;;;-0.6;66.92773;96744.3;;;;
2021/02/28 02:24:27;;;;;;;14.85;8.65;;;;;;;-0.6;66.92773;96744.3;;;;
2021/02/28 02:25:29;;;;;;;14.85;8.65;;;;;;;-0.6;66.92773;96744.3;;;;
2021/02/28 02:26:30;;;;;;;14.85;8.65;;;;;;;-0.6;66.92773;96744.3;;;;
2021/02/28 02:27:32;;;;;;;14.85;8.65;;;;;;;-0.6;66.92773;96744.3;;;;
2021/02/28 02:28:33;;;;;;;18.2;8.499999;;;;;;;-0.69;67.37402;96747.69;;;;
2021/02/28 02:29:33;;;;;;;18.2;8.499999;;;;;;;-0.69;67.37402;96747.69;;;;
2021/02/28 02:30:34;;;;;;;18.2;8.499999;;;;;;;-0.69;67.37402;96747.69;;;;
2021/02/28 02:31:35;;;;;;;18.2;8.499999;;;;;;;-0.69;67.37402;96747.69;;;;
2021/02/28 02:32:35;;;;;;;18.2;8.499999;;;;;;;-0.69;67.37402;96747.69;;;;
2021/02/28 02:33:36;;;;;;;18.2;8.499999;;;;;;;-0.69;67.37402;96747.69;;;;
2021/02/28 02:34:36;;;;;;;18.2;8.499999;;;;;;;-0.69;67.37402;96747.69;;;;
2021/02/28 02:35:37;;;;;;;18.2;8.499999;;;;;;;-0.69;67.37402;96747.69;;;;
2021/02/28 02:36:38;;;;;;;18.2;8.499999;;;;;;;-0.69;67.37402;96747.69;;;;
2021/02/28 02:37:39;;;;;;;18.2;8.499999;;;;;;;-0.69;67.37402;96747.69;;;;
2021/02/28 02:38:42;;;;;;;15.6;8.699999;;;;;;;-0.75;67.54102;96746.92;;;;
2021/02/28 02:39:43;;;;;;;15.6;8.699999;;;;;;;-0.75;67.54102;96746.92;;;;
2021/02/28 02:40:44;;;;;;;15.6;8.699999;;;;;;;-0.75;67.54102;96746.92;;;;
2021/02/28 02:41:46;;;;;;;15.6;8.699999;;;;;;;-0.75;67.54102;96746.92;;;;
2021/02/28 02:42:48;;;;;;;15.6;8.699999;;;;;;;-0.75;67.54102;96746.92;;;;
2021/02/28 02:43:48;;;;;;;15.6;8.699999;;;;;;;-0.75;67.54102;96746.92;;;;
2021/02/28 02:44:49;;;;;;;15.6;8.699999;;;;;;;-0.75;67.54102;96746.92;;;;
2021/02/28 02:45:50;;;;;;;15.6;8.699999;;;;;;;-0.75;67.54102;96746.92;;;;
2021/02/28 02:46:50;;;;;;;15.6;8.699999;;;;;;;-0.75;67.54102;96746.92;;;;
2021/02/28 02:47:51;;;;;;;15.6;8.699999;;;;;;;-0.75;67.54102;96746.92;;;;
2021/02/28 02:48:53;;;;;;;15.6;8.699999;;;;;;;-0.75;67.54102;96746.92;;;;
2021/02/28 02:49:54;;;;;;;16.45;9.500002;;;;;;;-0.83;67.6123;96748.93;;;;
2021/02/28 02:50:54;;;;;;;16.45;9.500002;;;;;;;-0.83;67.6123;96748.93;;;;
2021/02/28 02:51:55;;;;;;;16.45;9.500002;;;;;;;-0.83;67.6123;96748.93;;;;
2021/02/28 02:52:55;;;;;;;16.45;9.500002;;;;;;;-0.83;67.6123;96748.93;;;;
2021/02/28 02:53:56;;;;;;;16.45;9.500002;;;;;;;-0.83;67.6123;96748.93;;;;
2021/02/28 02:54:57;;;;;;;16.45;9.500002;;;;;;;-0.83;67.6123;96748.93;;;;
2021/02/28 02:55:58;;;;;;;16.45;9.500002;;;;;;;-0.83;67.6123;96748.93;;;;
2021/02/28 02:56:58;;;;;;;16.45;9.500002;;;;;;;-0.83;67.6123;96748.93;;;;
2021/02/28 02:57:59;;;;;;;16.45;9.500002;;;;;;;-0.83;67.6123;96748.93;;;;
2021/02/28 02:58:59;;;;;;;16.45;9.500002;;;;;;;-0.83;67.6123;96748.93;;;;
2021/02/28 03:00:01;;;;;;;15.6;8.949999;;;;;;;-0.8;67.77344;96751.78;;;;
2021/02/28 03:01:03;;;;;;;15.6;8.949999;;;;;;;-0.8;67.77344;96751.78;;;;
2021/02/28 03:02:04;;;;;;;15.6;8.949999;;;;;;;-0.8;67.77344;96751.78;;;;
2021/02/28 03:03:04;;;;;;;15.6;8.949999;;;;;;;-0.8;67.77344;96751.78;;;;
2021/02/28 03:04:06;;;;;;;15.6;8.949999;;;;;;;-0.8;67.77344;96751.78;;;;
2021/02/28 03:05:07;;;;;;;15.6;8.949999;;;;;;;-0.8;67.77344;96751.78;;;;
2021/02/28 03:06:09;;;;;;;15.6;8.949999;;;;;;;-0.8;67.77344;96751.78;;;;
2021/02/28 03:07:09;;;;;;;15.6;8.949999;;;;;;;-0.8;67.77344;96751.78;;;;
2021/02/28 03:08:10;;;;;;;15.6;8.949999;;;;;;;-0.8;67.77344;96751.78;;;;
2021/02/28 03:09:11;;;;;;;15.6;8.949999;;;;;;;-0.8;67.77344;96751.78;;;;
2021/02/28 03:10:11;;;;;;;15.6;8.949999;;;;;;;-0.8;67.77344;96751.78;;;;
2021/02/28 03:11:14;;;;;;;16.9;9.6;;;;;;;-0.88;67.77148;96755.08;;;;
2021/02/28 03:12:16;;;;;;;16.9;9.6;;;;;;;-0.88;67.77148;96755.08;;;;
2021/02/28 03:13:17;;;;;;;16.9;9.6;;;;;;;-0.88;67.77148;96755.08;;;;
2021/02/28 03:14:18;;;;;;;16.9;9.6;;;;;;;-0.88;67.77148;96755.08;;;;
2021/02/28 03:15:24;;;;;;;16.9;9.6;;;;;;;-0.88;67.77148;96755.08;;;;
2021/02/28 03:16:25;;;;;;;16.9;9.6;;;;;;;-0.88;67.77148;96755.08;;;;
2021/02/28 03:17:25;;;;;;;16.9;9.6;;;;;;;-0.88;67.77148;96755.08;;;;
2021/02/28 03:18:26;;;;;;;16.9;9.6;;;;;;;-0.88;67.77148;96755.08;;;;
2021/02/28 03:19:28;;;;;;;16.9;9.6;;;;;;;-0.88;67.77148;96755.08;;;;
2021/02/28 03:20:29;;;;;;;16.9;9.6;;;;;;;-0.88;67.77148;96755.08;;;;
2021/02/28 03:21:29;;;;;;;16.9;9.95;;;;;;;-0.9;68.02832;96746.02;;;;
2021/02/28 03:22:30;;;;;;;16.9;9.95;;;;;;;-0.9;68.02832;96746.02;;;;
2021/02/28 03:23:30;;;;;;;16.9;9.95;;;;;;;-0.9;68.02832;96746.02;;;;
2021/02/28 03:24:31;;;;;;;16.9;9.95;;;;;;;-0.9;68.02832;96746.02;;;;
2021/02/28 03:25:32;;;;;;;16.9;9.95;;;;;;;-0.9;68.02832;96746.02;;;;
2021/02/28 03:26:32;;;;;;;16.9;9.95;;;;;;;-0.9;68.02832;96746.02;;;;
2021/02/28 03:27:33;;;;;;;16.9;9.95;;;;;;;-0.9;68.02832;96746.02;;;;
2021/02/28 03:28:34;;;;;;;16.9;9.95;;;;;;;-0.9;68.02832;96746.02;;;;
2021/02/28 03:29:35;;;;;;;16.9;9.95;;;;;;;-0.9;68.02832;96746.02;;;;
2021/02/28 03:30:36;;;;;;;16.9;9.95;;;;;;;-0.9;68.02832;96746.02;;;;
2021/02/28 03:31:37;;;;;;;16.9;9.95;;;;;;;-0.9;68.02832;96746.02;;;;
2021/02/28 03:32:37;;;;;;;18.8;9.949998;;;;;;;-0.88;68.3125;96738.78;;;;
2021/02/28 03:33:38;;;;;;;18.8;9.949998;;;;;;;-0.88;68.3125;96738.78;;;;
2021/02/28 03:34:41;;;;;;;18.8;9.949998;;;;;;;-0.88;68.3125;96738.78;;;;
2021/02/28 03:35:42;;;;;;;18.8;9.949998;;;;;;;-0.88;68.3125;96738.78;;;;
2021/02/28 03:36:42;;;;;;;18.8;9.949998;;;;;;;-0.88;68.3125;96738.78;;;;
2021/02/28 03:37:43;;;;;;;18.8;9.949998;;;;;;;-0.88;68.3125;96738.78;;;;
2021/02/28 03:38:43;;;;;;;18.8;9.949998;;;;;;;-0.88;68.3125;96738.78;;;;
2021/02/28 03:39:46;;;;;;;18.8;9.949998;;;;;;;-0.88;68.3125;96738.78;;;;
2021/02/28 03:40:47;;;;;;;18.8;9.949998;;;;;;;-0.88;68.3125;96738.78;;;;
2021/02/28 03:41:47;;;;;;;18.8;9.949998;;;;;;;-0.88;68.3125;96738.78;;;;
2021/02/28 03:42:48;;;;;;;20.75;11;;;;;;;-0.87;68.30566;96742.21;;;;
2021/02/28 03:43:48;;;;;;;20.75;11;;;;;;;-0.87;68.30566;96742.21;;;;
2021/02/28 03:44:49;;;;;;;20.75;11;;;;;;;-0.87;68.30566;96742.21;;;;
2021/02/28 03:45:50;;;;;;;20.75;11;;;;;;;-0.87;68.30566;96742.21;;;;
2021/02/28 03:46:50;;;;;;;20.75;11;;;;;;;-0.87;68.30566;96742.21;;;;
2021/02/28 03:47:51;;;;;;;20.75;11;;;;;;;-0.87;68.30566;96742.21;;;;
2021/02/28 03:48:51;;;;;;;20.75;11;;;;;;;-0.87;68.30566;96742.21;;;;
2021/02/28 03:49:52;;;;;;;20.75;11;;;;;;;-0.87;68.30566;96742.21;;;;
2021/02/28 03:50:53;;;;;;;20.75;11;;;;;;;-0.87;68.30566;96742.21;;;;
2021/02/28 03:51:54;;;;;;;20.75;11;;;;;;;-0.87;68.30566;96742.21;;;;
2021/02/28 03:52:54;;;;;;;20.75;11;;;;;;;-0.87;68.30566;96742.21;;;;
2021/02/28 03:53:55;;;;;;;18.65;9.999998;;;;;;;-0.96;68.65527;96747.43;;;;
2021/02/28 03:54:55;;;;;;;18.65;9.999998;;;;;;;-0.96;68.65527;96747.43;;;;
2021/02/28 03:55:55;;;;;;;18.65;9.999998;;;;;;;-0.96;68.65527;96747.43;;;;
2021/02/28 03:56:56;;;;;;;18.65;9.999998;;;;;;;-0.96;68.65527;96747.43;;;;
2021/02/28 03:57:56;;;;;;;18.65;9.999998;;;;;;;-0.96;68.65527;96747.43;;;;
2021/02/28 03:58:57;;;;;;;18.65;9.999998;;;;;;;-0.96;68.65527;96747.43;;;;
2021/02/28 03:59:57;;;;;;;18.65;9.999998;;;;;;;-0.96;68.65527;96747.43;;;;
2021/02/28 04:00:58;;;;;;;18.65;9.999998;;;;;;;-0.96;68.65527;96747.43;;;;
2021/02/28 04:01:59;;;;;;;18.65;9.999998;;;;;;;-0.96;68.65527;96747.43;;;;
2021/02/28 04:02:59;;;;;;;18.65;9.999998;;;;;;;-0.96;68.65527;96747.43;;;;
2021/02/28 04:04:00;;;;;;;18.5;11;;;;;;;-1.03;68.73926;96734.3;;;;
2021/02/28 04:05:00;;;;;;;18.5;11;;;;;;;-1.03;68.73926;96734.3;;;;
2021/02/28 04:06:01;;;;;;;18.5;11;;;;;;;-1.03;68.73926;96734.3;;;;
2021/02/28 04:07:01;;;;;;;18.5;11;;;;;;;-1.03;68.73926;96734.3;;;;
2021/02/28 04:08:02;;;;;;;18.5;11;;;;;;;-1.03;68.73926;96734.3;;;;
2021/02/28 04:09:03;;;;;;;18.5;11;;;;;;;-1.03;68.73926;96734.3;;;;
2021/02/28 04:10:05;;;;;;;18.5;11;;;;;;;-1.03;68.73926;96734.3;;;;
2021/02/28 04:11:06;;;;;;;18.5;11;;;;;;;-1.03;68.73926;96734.3;;;;
2021/02/28 04:12:07;;;;;;;18.5;11;;;;;;;-1.03;68.73926;96734.3;;;;
2021/02/28 04:13:08;;;;;;;18.5;11;;;;;;;-1.03;68.73926;96734.3;;;;
2021/02/28 04:14:09;;;;;;;18.5;11;;;;;;;-1.03;68.73926;96734.3;;;;
2021/02/28 04:15:09;;;;;;;17.85;11.35;;;;;;;-1.17;68.78906;96731.94;;;;
2021/02/28 04:16:11;;;;;;;17.85;11.35;;;;;;;-1.17;68.78906;96731.94;;;;
2021/02/28 04:17:11;;;;;;;17.85;11.35;;;;;;;-1.17;68.78906;96731.94;;;;
2021/02/28 04:18:14;;;;;;;17.85;11.35;;;;;;;-1.17;68.78906;96731.94;;;;
2021/02/28 04:19:14;;;;;;;17.85;11.35;;;;;;;-1.17;68.78906;96731.94;;;;
2021/02/28 04:20:15;;;;;;;17.85;11.35;;;;;;;-1.17;68.78906;96731.94;;;;
2021/02/28 04:21:17;;;;;;;17.85;11.35;;;;;;;-1.17;68.78906;96731.94;;;;
2021/02/28 04:22:17;;;;;;;17.85;11.35;;;;;;;-1.17;68.78906;96731.94;;;;
2021/02/28 04:23:19;;;;;;;17.85;11.35;;;;;;;-1.17;68.78906;96731.94;;;;
2021/02/28 04:24:20;;;;;;;17.85;11.35;;;;;;;-1.17;68.78906;96731.94;;;;
2021/02/28 04:25:20;;;;;;;24.5;11.9;;;;;;;-1.28;69.11426;96716.61;;;;
2021/02/28 04:26:21;;;;;;;24.5;11.9;;;;;;;-1.28;69.11426;96716.61;;;;
2021/02/28 04:27:21;;;;;;;24.5;11.9;;;;;;;-1.28;69.11426;96716.61;;;;
2021/02/28 04:28:22;;;;;;;24.5;11.9;;;;;;;-1.28;69.11426;96716.61;;;;
2021/02/28 04:29:23;;;;;;;24.5;11.9;;;;;;;-1.28;69.11426;96716.61;;;;
2021/02/28 04:30:23;;;;;;;24.5;11.9;;;;;;;-1.28;69.11426;96716.61;;;;
2021/02/28 04:31:24;;;;;;;24.5;11.9;;;;;;;-1.28;69.11426;96716.61;;;;
2021/02/28 04:32:25;;;;;;;24.5;11.9;;;;;;;-1.28;69.11426;96716.61;;;;
2021/02/28 04:33:26;;;;;;;24.5;11.9;;;;;;;-1.28;69.11426;96716.61;;;;
2021/02/28 04:34:26;;;;;;;24.5;11.9;;;;;;;-1.28;69.11426;96716.61;;;;
2021/02/28 04:35:27;;;;;;;24.5;11.9;;;;;;;-1.28;69.11426;96716.61;;;;
2021/02/28 04:36:27;;;;;;;21.7;12.1;;;;;;;-1.29;69.1543;96712.69;;;;
2021/02/28 04:37:28;;;;;;;21.7;12.1;;;;;;;-1.29;69.1543;96712.69;;;;
2021/02/28 04:38:28;;;;;;;21.7;12.1;;;;;;;-1.29;69.1543;96712.69;;;;
2021/02/28 04:39:29;;;;;;;21.7;12.1;;;;;;;-1.29;69.1543;96712.69;;;;
2021/02/28 04:40:29;;;;;;;21.7;12.1;;;;;;;-1.29;69.1543;96712.69;;;;
2021/02/28 04:41:30;;;;;;;21.7;12.1;;;;;;;-1.29;69.1543;96712.69;;;;
2021/02/28 04:42:30;;;;;;;21.7;12.1;;;;;;;-1.29;69.1543;96712.69;;;;
2021/02/28 04:43:31;;;;;;;21.7;12.1;;;;;;;-1.29;69.1543;96712.69;;;;
2021/02/28 04:44:31;;;;;;;21.7;12.1;;;;;;;-1.29;69.1543;96712.69;;;;
2021/02/28 04:45:32;;;;;;;21.7;12.1;;;;;;;-1.29;69.1543;96712.69;;;;
2021/02/28 04:46:32;;;;;;;21.7;12.1;;;;;;;-1.29;69.1543;96712.69;;;;
2021/02/28 04:47:33;;;;;;;24.5;11.85;;;;;;;-1.34;69.32422;96703.39;;;;
2021/02/28 04:48:33;;;;;;;24.5;11.85;;;;;;;-1.34;69.32422;96703.39;;;;
2021/02/28 04:49:34;;;;;;;24.5;11.85;;;;;;;-1.34;69.32422;96703.39;;;;
2021/02/28 04:50:34;;;;;;;24.5;11.85;;;;;;;-1.34;69.32422;96703.39;;;;
2021/02/28 04:51:35;;;;;;;24.5;11.85;;;;;;;-1.34;69.32422;96703.39;;;;
2021/02/28 04:52:35;;;;;;;24.5;11.85;;;;;;;-1.34;69.32422;96703.39;;;;
2021/02/28 04:53:36;;;;;;;24.5;11.85;;;;;;;-1.34;69.32422;96703.39;;;;
2021/02/28 04:54:36;;;;;;;24.5;11.85;;;;;;;-1.34;69.32422;96703.39;;;;
2021/02/28 04:55:37;;;;;;;24.5;11.85;;;;;;;-1.34;69.32422;96703.39;;;;
2021/02/28 04:56:37;;;;;;;24.5;11.85;;;;;;;-1.34;69.32422;96703.39;;;;
2021/02/28 04:57:38;;;;;;;23.85;11.9;;;;;;;-1.33;69.43848;96708.22;;;;
2021/02/28 04:58:39;;;;;;;23.85;11.9;;;;;;;-1.33;69.43848;96708.22;;;;
2021/02/28 04:59:39;;;;;;;23.85;11.9;;;;;;;-1.33;69.43848;96708.22;;;;
2021/02/28 05:00:40;;;;;;;23.85;11.9;;;;;;;-1.33;69.43848;96708.22;;;;
2021/02/28 05:01:41;;;;;;;23.85;11.9;;;;;;;-1.33;69.43848;96708.22;;;;
2021/02/28 05:02:41;;;;;;;23.85;11.9;;;;;;;-1.33;69.43848;96708.22;;;;
2021/02/28 05:03:42;;;;;;;23.85;11.9;;;;;;;-1.33;69.43848;96708.22;;;;
2021/02/28 05:04:42;;;;;;;23.85;11.9;;;;;;;-1.33;69.43848;96708.22;;;;
2021/02/28 05:05:43;;;;;;;23.85;11.9;;;;;;;-1.33;69.43848;96708.22;;;;
2021/02/28 05:06:44;;;;;;;23.85;11.9;;;;;;;-1.33;69.43848;96708.22;;;;
2021/02/28 05:07:44;;;;;;;23.85;11.9;;;;;;;-1.33;69.43848;96708.22;;;;
2021/02/28 05:08:45;;;;;;;22.55;11.25;;;;;;;-1.35;69.98926;96713.22;;;;
2021/02/28 05:09:45;;;;;;;22.55;11.25;;;;;;;-1.35;69.98926;96713.22;;;;
2021/02/28 05:10:46;;;;;;;22.55;11.25;;;;;;;-1.35;69.98926;96713.22;;;;
2021/02/28 05:11:46;;;;;;;22.55;11.25;;;;;;;-1.35;69.98926;96713.22;;;;
2021/02/28 05:12:47;;;;;;;22.55;11.25;;;;;;;-1.35;69.98926;96713.22;;;;
2021/02/28 05:13:49;;;;;;;22.55;11.25;;;;;;;-1.35;69.98926;96713.22;;;;
2021/02/28 05:14:50;;;;;;;22.55;11.25;;;;;;;-1.35;69.98926;96713.22;;;;
2021/02/28 05:15:50;;;;;;;22.55;11.25;;;;;;;-1.35;69.98926;96713.22;;;;
2021/02/28 05:16:51;;;;;;;22.55;11.25;;;;;;;-1.35;69.98926;96713.22;;;;
2021/02/28 05:17:51;;;;;;;22.55;11.25;;;;;;;-1.35;69.98926;96713.22;;;;
2021/02/28 05:19:00;;;;;;;22.25;11.15;;;;;;;-1.36;69.85254;96701.35;;;;
2021/02/28 05:20:00;;;;;;;22.25;11.15;;;;;;;-1.36;69.85254;96701.35;;;;
2021/02/28 05:21:01;;;;;;;22.25;11.15;;;;;;;-1.36;69.85254;96701.35;;;;
2021/02/28 05:22:01;;;;;;;22.25;11.15;;;;;;;-1.36;69.85254;96701.35;;;;
2021/02/28 05:23:02;;;;;;;22.25;11.15;;;;;;;-1.36;69.85254;96701.35;;;;
2021/02/28 05:24:03;;;;;;;22.25;11.15;;;;;;;-1.36;69.85254;96701.35;;;;
2021/02/28 05:25:05;;;;;;;22.25;11.15;;;;;;;-1.36;69.85254;96701.35;;;;
2021/02/28 05:26:07;;;;;;;22.25;11.15;;;;;;;-1.36;69.85254;96701.35;;;;
2021/02/28 05:27:08;;;;;;;22.25;11.15;;;;;;;-1.36;69.85254;96701.35;;;;
2021/02/28 05:28:08;;;;;;;22.25;11.15;;;;;;;-1.36;69.85254;96701.35;;;;
2021/02/28 05:29:09;;;;;;;22.25;11.15;;;;;;;-1.36;69.85254;96701.35;;;;
2021/02/28 05:30:10;;;;;;;23.8;12.95;;;;;;;-1.47;70.14648;96703.63;;;;
2021/02/28 05:31:11;;;;;;;23.8;12.95;;;;;;;-1.47;70.14648;96703.63;;;;
2021/02/28 05:32:11;;;;;;;23.8;12.95;;;;;;;-1.47;70.14648;96703.63;;;;
2021/02/28 05:33:12;;;;;;;23.8;12.95;;;;;;;-1.47;70.14648;96703.63;;;;
2021/02/28 05:34:12;;;;;;;23.8;12.95;;;;;;;-1.47;70.14648;96703.63;;;;
2021/02/28 05:35:13;;;;;;;23.8;12.95;;;;;;;-1.47;70.14648;96703.63;;;;
2021/02/28 05:36:14;;;;;;;23.8;12.95;;;;;;;-1.47;70.14648;96703.63;;;;